createdAt,value
2019-02-25T00:00:18.086Z,34.35
2019-02-25T00:02:46.676Z,33.20
2019-02-25T00:05:15.327Z,35.50
2019-02-25T00:07:43.958Z,35.13
2019-02-25T00:10:12.633Z,35.55
2019-02-25T00:12:41.266Z,36.83
2019-02-25T00:15:10.788Z,35.63
2019-02-25T00:17:40.707Z,41.45
2019-02-25T00:20:13.213Z,35.70
2019-02-25T00:22:41.776Z,37.50
2019-02-25T00:25:12.679Z,39.30
2019-02-25T00:27:41.270Z,36.98
2019-02-25T00:30:14.760Z,36.20
2019-02-25T00:32:43.496Z,36.45
2019-02-25T00:35:12.280Z,38.42
2019-02-25T00:37:40.901Z,30.65
2019-02-25T00:40:14.231Z,34.13
2019-02-25T00:42:42.843Z,29.63
2019-02-25T00:45:15.873Z,29.42
2019-02-25T00:47:44.573Z,26.15
2019-02-25T00:50:18.320Z,26.80
2019-02-25T00:52:46.972Z,26.15
2019-02-25T00:55:16.079Z,34.08
2019-02-25T00:57:44.791Z,29.42
2019-02-25T01:00:16.934Z,26.85
2019-02-25T01:02:45.674Z,23.87
2019-02-25T01:05:16.098Z,23.62
2019-02-25T01:07:44.735Z,28.00
2019-02-25T01:10:14.367Z,25.52
2019-02-25T01:12:45.283Z,30.43
2019-02-25T01:15:14.807Z,26.68
2019-02-25T01:17:43.389Z,29.67
2019-02-25T01:20:19.268Z,28.85
2019-02-25T01:22:47.990Z,23.57
2019-02-25T01:25:17.739Z,26.35
2019-02-25T01:27:46.378Z,25.43
2019-02-25T01:30:17.478Z,27.77
2019-02-25T01:32:46.083Z,28.05
2019-02-25T01:35:14.962Z,26.07
2019-02-25T01:37:43.654Z,24.25
2019-02-25T01:40:13.664Z,24.45
2019-02-25T01:42:42.383Z,26.73
2019-02-25T01:45:14.054Z,31.60
2019-02-25T01:47:42.625Z,30.02
2019-02-25T01:50:11.860Z,30.23
2019-02-25T01:52:40.518Z,26.17
2019-02-25T01:55:11.032Z,29.40
2019-02-25T01:57:39.965Z,26.07
2019-02-25T02:00:17.202Z,24.27
2019-02-25T02:02:45.963Z,25.82
2019-02-25T02:05:14.709Z,24.85
2019-02-25T02:07:43.338Z,25.32
2019-02-25T02:10:16.247Z,26.15
2019-02-25T02:12:44.944Z,22.37
2019-02-25T02:15:15.466Z,22.82
2019-02-25T02:17:44.193Z,30.50
2019-02-25T02:20:16.876Z,22.30
2019-02-25T02:22:45.727Z,24.98
2019-02-25T02:25:14.784Z,22.58
2019-02-25T02:27:43.603Z,26.30
2019-02-25T02:30:19.667Z,22.93
2019-02-25T02:32:48.343Z,21.30
2019-02-25T02:35:17.031Z,22.98
2019-02-25T02:37:45.782Z,23.12
2019-02-25T02:40:14.857Z,22.02
2019-02-25T02:42:55.371Z,24.45
2019-02-25T02:45:29.731Z,24.00
2019-02-25T02:48:01.804Z,22.73
2019-02-25T02:50:30.419Z,26.23
2019-02-25T02:52:59.099Z,28.65
2019-02-25T02:55:27.654Z,22.65
2019-02-25T02:57:56.266Z,25.82
2019-02-25T03:00:25.075Z,19.77
2019-02-25T03:02:53.647Z,22.70
2019-02-25T03:05:22.303Z,20.02
2019-02-25T03:07:53.641Z,20.32
2019-02-25T03:10:22.300Z,23.07
2019-02-25T03:12:50.859Z,23.42
2019-02-25T03:15:23.056Z,24.20
2019-02-25T03:17:51.684Z,24.10
2019-02-25T03:20:20.527Z,21.50
2019-02-25T03:22:49.285Z,21.75
2019-02-25T03:25:18.693Z,26.50
2019-02-25T03:27:47.350Z,22.00
2019-02-25T03:30:20.814Z,23.73
2019-02-25T03:32:49.372Z,23.02
2019-02-25T03:35:18.043Z,19.82
2019-02-25T03:37:46.697Z,21.00
2019-02-25T03:40:24.607Z,19.80
2019-02-25T03:42:53.215Z,19.05
2019-02-25T03:45:21.798Z,25.68
2019-02-25T03:47:50.370Z,20.00
2019-02-25T03:50:19.065Z,18.62
2019-02-25T03:52:47.640Z,21.33
2019-02-25T03:55:20.744Z,18.32
2019-02-25T03:57:49.772Z,22.52
2019-02-25T04:00:20.376Z,19.37
2019-02-25T04:02:48.935Z,18.82
2019-02-25T04:05:17.706Z,18.20
2019-02-25T04:07:46.511Z,17.32
2019-02-25T04:10:15.516Z,17.57
2019-02-25T04:12:44.176Z,19.27
2019-02-25T04:15:24.127Z,15.88
2019-02-25T04:17:52.736Z,20.77
2019-02-25T04:20:21.368Z,15.83
2019-02-25T04:22:49.971Z,17.92
2019-02-25T04:25:18.558Z,18.42
2019-02-25T04:27:47.166Z,22.22
2019-02-25T04:30:16.669Z,17.65
2019-02-25T04:32:45.327Z,15.72
2019-02-25T04:35:14.447Z,17.20
2019-02-25T04:37:43.116Z,18.12
2019-02-25T04:40:15.686Z,15.15
2019-02-25T04:42:44.260Z,18.20
2019-02-25T04:45:17.856Z,18.15
2019-02-25T04:47:46.557Z,16.73
2019-02-25T04:50:15.234Z,19.25
2019-02-25T04:52:43.825Z,15.40
2019-02-25T04:55:14.742Z,16.42
2019-02-25T04:57:43.351Z,18.95
2019-02-25T05:00:14.618Z,13.43
2019-02-25T05:02:43.253Z,15.05
2019-02-25T05:05:11.986Z,15.18
2019-02-25T05:07:40.633Z,14.98
2019-02-25T05:10:16.020Z,16.17
2019-02-25T05:12:46.309Z,19.62
2019-02-25T05:15:19.264Z,23.95
2019-02-25T05:17:47.840Z,22.87
2019-02-25T05:20:16.397Z,27.90
2019-02-25T05:22:45.034Z,28.67
2019-02-25T05:25:13.752Z,35.88
2019-02-25T05:27:42.315Z,22.80
2019-02-25T05:30:13.592Z,23.32
2019-02-25T05:32:42.261Z,20.92
2019-02-25T05:35:12.389Z,19.35
2019-02-25T05:37:41.123Z,32.65
2019-02-25T05:40:15.134Z,18.42
2019-02-25T05:42:43.987Z,23.62
2019-02-25T05:45:13.894Z,27.90
2019-02-25T05:47:42.500Z,25.65
2019-02-25T05:50:16.223Z,21.62
2019-02-25T05:52:44.891Z,24.37
2019-02-25T05:55:14.804Z,22.27
2019-02-25T05:57:43.509Z,19.65
2019-02-25T06:00:16.926Z,20.10
2019-02-25T06:02:45.523Z,29.35
2019-02-25T06:05:14.108Z,23.98
2019-02-25T06:07:42.773Z,24.75
2019-02-25T06:10:12.890Z,32.80
2019-02-25T06:12:41.544Z,25.92
2019-02-25T06:15:18.027Z,23.60
2019-02-25T06:17:46.760Z,28.02
2019-02-25T06:20:17.327Z,26.57
2019-02-25T06:22:46.200Z,30.10
2019-02-25T06:25:15.989Z,32.10
2019-02-25T06:27:44.670Z,36.05
2019-02-25T06:30:20.504Z,37.67
2019-02-25T06:32:49.257Z,35.05
2019-02-25T06:35:17.978Z,28.70
2019-02-25T06:37:46.887Z,32.63
2019-02-25T06:40:19.697Z,26.80
2019-02-25T06:42:48.452Z,29.20
2019-02-25T06:45:35.120Z,24.85
2019-02-25T06:48:03.699Z,22.27
2019-02-25T06:50:33.045Z,28.17
2019-02-25T06:53:01.627Z,27.37
2019-02-25T06:55:30.191Z,36.85
2019-02-25T06:57:58.773Z,26.60
2019-02-25T07:00:27.372Z,19.62
2019-02-25T07:02:55.943Z,19.92
2019-02-25T07:05:42.823Z,27.17
2019-02-25T07:08:13.052Z,27.87
2019-02-25T07:10:49.506Z,24.32
2019-02-25T07:13:22.168Z,22.15
2019-02-25T07:15:55.044Z,30.27
2019-02-25T07:18:41.531Z,18.35
2019-02-25T07:21:12.386Z,21.82
2019-02-25T07:23:48.827Z,22.32
2019-02-25T07:26:35.363Z,22.48
2019-02-25T07:29:05.662Z,21.20
2019-02-25T07:31:38.896Z,22.82
2019-02-25T07:34:20.766Z,22.73
2019-02-25T07:36:56.986Z,21.37
2019-02-25T07:39:29.953Z,26.17
2019-02-25T07:42:02.618Z,18.90
2019-02-25T07:44:42.120Z,22.30
2019-02-25T07:47:18.425Z,22.95
2019-02-25T07:49:57.552Z,28.70
2019-02-25T07:52:27.804Z,31.15
2019-02-25T07:55:01.205Z,26.33
2019-02-25T07:57:31.441Z,33.58
2019-02-25T08:00:04.374Z,25.23
2019-02-25T08:02:34.583Z,24.35
2019-02-25T08:05:17.031Z,26.05
2019-02-25T08:08:03.537Z,26.68
2019-02-25T08:10:40.026Z,24.80
2019-02-25T08:13:10.234Z,24.27
2019-02-25T08:15:43.292Z,23.85
2019-02-25T08:18:16.022Z,26.52
2019-02-25T08:20:58.269Z,22.77
2019-02-25T08:23:28.544Z,23.87
2019-02-25T08:26:15.201Z,22.30
2019-02-25T08:28:51.179Z,22.70
2019-02-25T08:31:37.555Z,23.12
2019-02-25T08:34:23.948Z,20.75
2019-02-25T08:37:21.210Z,20.20
2019-02-25T08:39:56.995Z,22.40
2019-02-25T08:42:42.064Z,26.40
2019-02-25T08:45:18.355Z,22.50
2019-02-25T08:47:48.593Z,30.00
2019-02-25T08:50:17.248Z,37.00
2019-02-25T08:52:45.810Z,23.55
2019-02-25T08:55:14.466Z,28.38
2019-02-25T08:57:43.287Z,32.38
2019-02-25T09:00:14.182Z,29.95
2019-02-25T09:02:42.837Z,29.18
2019-02-25T09:05:13.842Z,28.12
2019-02-25T09:07:42.848Z,26.35
2019-02-25T09:10:13.612Z,26.25
2019-02-25T09:12:42.263Z,32.95
2019-02-25T09:15:13.833Z,27.85
2019-02-25T09:17:44.508Z,36.77
2019-02-25T09:20:14.901Z,33.88
2019-02-25T09:22:43.487Z,32.88
2019-02-25T09:25:14.561Z,32.23
2019-02-25T09:27:43.283Z,29.40
2019-02-25T09:30:14.500Z,27.85
2019-02-25T09:32:43.223Z,32.08
2019-02-25T09:35:11.936Z,25.57
2019-02-25T09:37:40.501Z,30.23
2019-02-25T09:40:11.994Z,28.38
2019-02-25T09:42:40.620Z,28.75
2019-02-25T09:45:12.303Z,32.53
2019-02-25T09:47:40.874Z,36.77
2019-02-25T09:50:14.156Z,29.55
2019-02-25T09:52:42.700Z,30.62
2019-02-25T09:55:13.183Z,37.50
2019-02-25T09:57:41.824Z,35.10
2019-02-25T10:00:19.187Z,31.77
2019-02-25T10:02:47.745Z,32.38
2019-02-25T10:05:16.390Z,30.68
2019-02-25T10:07:45.043Z,37.67
2019-02-25T10:10:17.967Z,38.70
2019-02-25T10:12:46.650Z,37.83
2019-02-25T10:15:20.489Z,26.10
2019-02-25T10:17:49.224Z,38.95
2019-02-25T10:20:18.782Z,31.45
2019-02-25T10:22:47.433Z,30.30
2019-02-25T10:25:16.013Z,34.53
2019-02-25T10:27:44.579Z,32.90
2019-02-25T10:30:15.651Z,31.02
2019-02-25T10:32:44.287Z,31.35
2019-02-25T10:35:15.254Z,31.57
2019-02-25T10:37:43.903Z,30.10
2019-02-25T10:40:17.833Z,31.87
2019-02-25T10:42:45.928Z,31.93
2019-02-25T10:45:22.533Z,33.42
2019-02-25T10:47:53.576Z,29.85
2019-02-25T10:50:21.636Z,34.58
2019-02-25T10:52:50.267Z,30.30
2019-02-25T10:55:27.856Z,31.87
2019-02-25T10:57:57.623Z,27.13
2019-02-25T11:00:26.810Z,28.45
2019-02-25T11:02:57.672Z,32.48
2019-02-25T11:05:27.847Z,28.25
2019-02-25T11:07:56.141Z,28.47
2019-02-25T11:10:35.711Z,33.23
2019-02-25T11:13:04.683Z,32.70
2019-02-25T11:15:34.948Z,27.55
2019-02-25T11:18:04.755Z,28.83
2019-02-25T11:20:35.077Z,31.42
2019-02-25T11:23:03.820Z,32.58
2019-02-25T11:25:32.556Z,30.23
2019-02-25T11:28:02.757Z,29.90
2019-02-25T11:30:31.448Z,30.20
2019-02-25T11:33:00.102Z,30.88
2019-02-25T11:35:28.782Z,29.65
2019-02-25T11:37:59.835Z,29.40
2019-02-25T11:40:28.962Z,29.75
2019-02-25T11:42:58.018Z,29.00
2019-02-25T11:45:26.595Z,27.15
2019-02-25T11:47:55.159Z,27.80
2019-02-25T11:50:23.838Z,29.42
2019-02-25T11:52:52.430Z,35.28
2019-02-25T11:55:21.971Z,31.25
2019-02-25T11:57:50.596Z,29.82
2019-02-25T12:00:26.928Z,29.92
2019-02-25T12:02:55.487Z,31.85
2019-02-25T12:05:24.221Z,29.25
2019-02-25T12:07:52.805Z,29.15
2019-02-25T12:10:21.523Z,27.50
2019-02-25T12:12:50.101Z,31.75
2019-02-25T12:15:20.036Z,30.00
2019-02-25T12:17:48.637Z,26.55
2019-02-25T12:20:17.284Z,29.07
2019-02-25T12:22:45.914Z,27.30
2019-02-25T12:25:16.831Z,29.15
2019-02-25T12:27:45.977Z,26.27
2019-02-25T12:30:17.614Z,29.87
2019-02-25T12:32:46.291Z,29.80
2019-02-25T12:35:15.130Z,27.52
2019-02-25T12:37:43.794Z,25.43
2019-02-25T12:40:14.195Z,33.80
2019-02-25T12:42:42.897Z,26.60
2019-02-25T12:45:15.451Z,26.17
2019-02-25T12:47:44.160Z,32.08
2019-02-25T12:50:20.090Z,24.12
2019-02-25T12:52:48.798Z,28.70
2019-02-25T12:55:18.308Z,27.15
2019-02-25T12:57:46.985Z,26.77
2019-02-25T13:00:20.627Z,30.85
2019-02-25T13:02:49.228Z,26.15
2019-02-25T13:05:25.405Z,28.17
2019-02-25T13:07:54.128Z,27.48
2019-02-25T13:10:22.803Z,30.80
2019-02-25T13:12:51.781Z,31.42
2019-02-25T13:15:22.019Z,32.28
2019-02-25T13:17:50.607Z,31.48
2019-02-25T13:20:19.325Z,29.37
2019-02-25T13:22:47.901Z,29.10
2019-02-25T13:25:27.113Z,30.32
2019-02-25T13:27:56.918Z,27.85
2019-02-25T13:30:25.915Z,31.00
2019-02-25T13:32:54.555Z,28.87
2019-02-25T13:35:23.243Z,27.05
2019-02-25T13:37:51.796Z,27.15
2019-02-25T13:40:20.486Z,26.02
2019-02-25T13:42:49.404Z,29.32
2019-02-25T13:45:21.329Z,36.48
2019-02-25T13:47:50.042Z,28.15
2019-02-25T13:50:19.252Z,28.17
2019-02-25T13:52:48.964Z,24.57
2019-02-25T13:55:19.564Z,27.85
2019-02-25T13:57:48.187Z,23.57
2019-02-25T14:00:21.301Z,25.43
2019-02-25T14:02:50.120Z,28.95
2019-02-25T14:05:19.137Z,29.70
2019-02-25T14:07:47.855Z,27.77
2019-02-25T14:10:17.580Z,25.65
2019-02-25T14:12:46.394Z,21.37
2019-02-25T14:15:22.887Z,26.00
2019-02-25T14:17:51.627Z,29.18
2019-02-25T14:20:21.465Z,22.67
2019-02-25T14:22:50.215Z,25.23
2019-02-25T14:25:29.686Z,25.60
2019-02-25T14:27:58.748Z,32.70
2019-02-25T14:30:32.927Z,26.65
2019-02-25T14:32:58.602Z,27.75
2019-02-25T14:35:29.104Z,27.87
2019-02-25T14:38:04.258Z,22.35
2019-02-25T14:40:32.378Z,34.08
2019-02-25T14:43:02.637Z,25.95
2019-02-25T14:45:32.140Z,29.12
2019-02-25T14:48:03.224Z,26.27
2019-02-25T14:50:31.292Z,24.67
2019-02-25T14:53:01.199Z,32.80
2019-02-25T14:55:30.724Z,26.33
2019-02-25T14:58:02.101Z,26.62
2019-02-25T15:00:32.133Z,29.92
2019-02-25T15:03:00.000Z,30.27
2019-02-25T15:05:28.639Z,26.87
2019-02-25T15:07:57.525Z,29.60
2019-02-25T15:10:29.157Z,31.57
2019-02-25T15:12:58.968Z,32.00
2019-02-25T15:15:29.331Z,28.15
2019-02-25T15:17:58.105Z,36.45
2019-02-25T15:20:28.790Z,26.87
2019-02-25T15:22:57.075Z,30.10
2019-02-25T15:25:29.105Z,34.25
2019-02-25T15:27:56.172Z,32.45
2019-02-25T15:30:30.835Z,35.85
2019-02-25T15:32:59.426Z,37.60
2019-02-25T15:35:34.661Z,28.90
2019-02-25T15:38:00.470Z,35.03
2019-02-25T15:40:29.688Z,37.67
2019-02-25T15:43:03.231Z,34.60
2019-02-25T15:45:35.450Z,37.83
2019-02-25T15:48:05.538Z,33.60
2019-02-25T15:50:34.174Z,29.48
2019-02-25T15:53:04.972Z,30.77
2019-02-25T15:55:33.431Z,35.83
2019-02-25T15:58:02.063Z,36.40
2019-02-25T16:00:32.706Z,47.62
2019-02-25T16:03:01.931Z,35.90
2019-02-25T16:05:34.321Z,28.62
2019-02-25T16:08:04.247Z,24.35
2019-02-25T16:10:33.000Z,27.13
2019-02-25T16:13:04.589Z,26.65
2019-02-25T16:15:32.971Z,27.55
2019-02-25T16:18:02.451Z,30.45
2019-02-25T16:20:32.559Z,36.80
2019-02-25T16:23:04.730Z,35.30
2019-02-25T16:25:34.339Z,32.38
2019-02-25T16:28:03.005Z,31.27
2019-02-25T16:30:31.688Z,31.77
2019-02-25T16:33:02.273Z,30.55
2019-02-25T16:35:30.552Z,30.45
2019-02-25T16:38:00.367Z,36.00
2019-02-25T16:40:31.448Z,35.03
2019-02-25T16:43:02.208Z,34.85
2019-02-25T16:45:34.705Z,39.42
2019-02-25T16:48:00.490Z,50.12
2019-02-25T16:50:29.236Z,40.95
2019-02-25T16:52:57.894Z,41.05
2019-02-25T16:55:27.753Z,41.28
2019-02-25T16:57:56.649Z,72.72
2019-02-25T17:00:27.824Z,41.50
2019-02-25T17:03:03.302Z,43.85
2019-02-25T17:05:29.952Z,46.58
2019-02-25T17:07:58.524Z,37.85
2019-02-25T17:10:31.014Z,38.08
2019-02-25T17:12:57.584Z,34.92
2019-02-25T17:15:27.150Z,40.73
2019-02-25T17:17:58.354Z,38.73
2019-02-25T17:20:29.339Z,35.70
2019-02-25T17:22:59.813Z,37.60
2019-02-25T17:25:31.330Z,42.98
2019-02-25T17:27:58.879Z,43.52
2019-02-25T17:30:28.721Z,44.63
2019-02-25T17:32:57.562Z,38.10
2019-02-25T17:35:28.881Z,48.92
2019-02-25T17:38:03.607Z,38.25
2019-02-25T17:40:41.365Z,42.62
2019-02-25T17:43:24.226Z,38.60
2019-02-25T17:45:58.238Z,37.78
2019-02-25T17:48:27.479Z,32.63
2019-02-25T17:50:57.342Z,36.93
2019-02-25T17:53:28.208Z,40.80
2019-02-25T17:55:57.765Z,43.95
2019-02-25T17:58:26.862Z,223.80
2019-02-25T18:00:59.254Z,114.45
2019-02-25T18:03:29.073Z,89.17
2019-02-25T18:05:58.587Z,62.10
2019-02-25T18:08:30.896Z,76.95
2019-02-25T18:11:01.272Z,46.28
2019-02-25T18:13:30.660Z,101.33
2019-02-25T18:16:00.623Z,46.18
2019-02-25T18:18:29.231Z,59.48
2019-02-25T18:20:57.787Z,75.50
2019-02-25T18:23:26.443Z,58.70
2019-02-25T18:25:58.166Z,54.80
2019-02-25T18:28:25.555Z,52.90
2019-02-25T18:30:54.445Z,50.05
2019-02-25T18:33:25.265Z,58.20
2019-02-25T18:35:53.821Z,56.02
2019-02-25T18:38:23.297Z,97.33
2019-02-25T18:40:52.869Z,90.40
2019-02-25T18:43:22.071Z,212.53
2019-02-25T18:45:53.416Z,58.90
2019-02-25T18:48:23.282Z,43.08
2019-02-25T18:50:55.150Z,170.60
2019-02-25T18:53:23.418Z,81.12
2019-02-25T18:55:54.531Z,56.65
2019-02-25T18:58:23.898Z,53.05
2019-02-25T19:00:53.015Z,49.58
2019-02-25T19:03:21.710Z,85.57
2019-02-25T19:05:51.125Z,194.82
2019-02-25T19:08:29.069Z,119.10
2019-02-25T19:10:54.982Z,58.87
2019-02-25T19:13:25.349Z,47.40
2019-02-25T19:15:59.252Z,51.00
2019-02-25T19:18:29.514Z,52.03
2019-02-25T19:20:59.774Z,50.38
2019-02-25T19:23:34.951Z,47.85
2019-02-25T19:26:02.225Z,49.48
2019-02-25T19:28:30.869Z,52.85
2019-02-25T19:30:59.691Z,49.00
2019-02-25T19:33:28.497Z,48.52
2019-02-25T19:35:58.810Z,43.40
2019-02-25T19:38:32.001Z,47.78
2019-02-25T19:40:59.549Z,68.72
2019-02-25T19:43:29.547Z,49.90
2019-02-25T19:45:59.445Z,53.60
2019-02-25T19:48:29.540Z,46.73
2019-02-25T19:50:59.609Z,46.58
2019-02-25T19:53:31.670Z,45.30
2019-02-25T19:55:59.478Z,50.95
2019-02-25T19:58:31.669Z,45.83
2019-02-25T20:01:01.016Z,47.90
2019-02-25T20:03:28.955Z,51.00
2019-02-25T20:06:02.325Z,46.60
2019-02-25T20:08:30.933Z,47.62
2019-02-25T20:10:59.502Z,50.30
2019-02-25T20:13:28.723Z,48.95
2019-02-25T20:24:19.487Z,51.90
2019-02-25T20:34:25.916Z,48.25
2019-02-25T20:44:30.593Z,45.65
2019-02-25T20:54:37.916Z,40.48
2019-02-25T21:04:40.936Z,49.03
2019-02-25T21:14:45.389Z,49.53
2019-02-25T21:24:49.480Z,42.33
2019-02-25T21:34:56.043Z,42.55
2019-02-25T21:45:02.404Z,42.10
2019-02-25T21:55:09.319Z,43.05
2019-02-25T22:05:14.361Z,44.38
2019-02-25T22:15:22.382Z,42.60
2019-02-25T22:25:26.272Z,52.43
2019-02-25T22:35:33.095Z,53.48
2019-02-25T22:45:37.554Z,51.08
2019-02-25T22:55:42.675Z,48.73
2019-02-25T23:05:47.966Z,50.70
2019-02-25T23:15:53.052Z,53.50
2019-02-25T23:25:58.385Z,50.98
2019-02-25T23:36:01.860Z,48.80
2019-02-25T23:46:06.643Z,46.77
2019-02-25T23:56:11.432Z,45.50
